CW4778 Auckland NZ current weather conditions

sailwx.info

Wind from 022

Air temperature 12.8° C
Dewpoint 12.6° C

Last reported at 2016-Aug-24 20:48 UTC.
Time now 2016-Aug-24 21:31 UTC

Location: S 36°52' E 174°44'.
View on Google Maps.

See reports from other nearby stations

  
Tides and Currents Weather Stations Pressure Air Temp Water Temp Dewpoint Dewpoint Depression Visibility Wind Speed Wind Dir Waves Ship Positions
date/time (UTC)wind fromknots sea level pressurealtimeterstation pressurevisibilityair tempwater tempwave heightnotes
2016-Aug-24 20:48 022 12.8
2016-Aug-24 20:38 039 4 gusting 6 12.8
2016-Aug-24 20:28 12.8
2016-Aug-24 20:18 035 12.8
2016-Aug-24 19:58 018 1 gusting 6 12.8
2016-Aug-24 19:38 046 12.8
2016-Aug-24 19:08 339 12.8
2016-Aug-24 18:48 316 12.8
2016-Aug-24 18:28 310 12.8
2016-Aug-24 18:08 313 12.8
2016-Aug-24 17:48 310 12.8
2016-Aug-24 17:38 310 12.8
2016-Aug-24 17:28 317 12.8
2016-Aug-24 17:08 335 13.3
2016-Aug-24 16:38 334 1 gusting 5 13.3
2016-Aug-24 16:28 313 1 gusting 5 13.3
2016-Aug-24 16:08 337 3 gusting 6 13.3
2016-Aug-24 15:58 348 13.3
2016-Aug-24 15:48 340 13.3
2016-Aug-24 15:18 301 13.3
2016-Aug-24 14:58 298 13.9
2016-Aug-24 14:48 356 13.9
2016-Aug-24 14:38 333 13.9
2016-Aug-24 14:28 300 0 gusting 6 13.9
2016-Aug-24 14:18 292 3 gusting 6 13.9
2016-Aug-24 13:48 339 2 gusting 6 13.9
2016-Aug-24 13:38 296 4 gusting 8 13.9
2016-Aug-24 13:28 300 3 gusting 7 13.9
2016-Aug-24 13:18 291 5 gusting 10 13.9
2016-Aug-24 13:08 324 6 gusting 13 13.3
2016-Aug-24 12:58 291 3 gusting 13 13.3
2016-Aug-24 12:48 282 6 gusting 15 13.3
2016-Aug-24 12:38 335 8 gusting 19 13.9
2016-Aug-24 12:28 307 9 gusting 20 14.4
2016-Aug-24 12:08 14.4
2016-Aug-24 11:58 303 8 gusting 22 14.4
2016-Aug-24 11:48 321 9 gusting 19 14.4
2016-Aug-24 11:38 306 8 gusting 13 14.4
2016-Aug-24 11:08 341 4 gusting 7 13.3
2016-Aug-24 10:48 348 1 gusting 6 13.3
2016-Aug-24 10:28 025 4 gusting 10 13.3
2016-Aug-24 10:18 038 6 gusting 8 13.3
2016-Aug-24 09:58 022 7 gusting 12 12.8
2016-Aug-24 09:38 038 7 gusting 13 12.8
2016-Aug-24 09:18 050 8 gusting 13 12.8
2016-Aug-24 08:58 038 9 gusting 15 12.2
2016-Aug-24 08:38 022 10 gusting 15 12.2
2016-Aug-24 08:08 028 14 gusting 24 12.2
2016-Aug-24 07:58 358 13 gusting 20 12.2
2016-Aug-24 07:48 023 11 gusting 18 12.2
2016-Aug-24 07:38 032 12 gusting 18 12.2
2016-Aug-24 07:28 040 14 gusting 20 12.2
2016-Aug-24 07:18 029 12 gusting 17 12.2
2016-Aug-24 06:58 020 12 gusting 25 12.2
2016-Aug-24 06:48 039 13 gusting 17 12.2
2016-Aug-24 06:38 027 13 gusting 19 12.2
2016-Aug-24 06:18 027 13 gusting 20 12.2
2016-Aug-24 06:08 046 13 gusting 19 12.2
2016-Aug-24 05:48 037 10 gusting 19 11.7
2016-Aug-24 05:38 054 7 gusting 14 11.7
2016-Aug-24 05:28 017 8 gusting 14 11.7
2016-Aug-24 05:18 033 8 gusting 15 11.7
2016-Aug-24 04:58 037 7 gusting 14 11.1
2016-Aug-24 04:28 036 7 gusting 15 11.7
2016-Aug-24 04:18 035 7 gusting 14 11.7
2016-Aug-24 04:08 036 10 gusting 14 11.1
2016-Aug-24 03:48 031 6 gusting 12 11.1
2016-Aug-24 03:38 017 5 gusting 8 11.1
2016-Aug-24 03:28 041 6 gusting 10 10.6
2016-Aug-24 03:18 028 5 gusting 11 11.1
2016-Aug-24 03:08 022 7 gusting 12 11.1
2016-Aug-24 02:18 050 6 gusting 8 11.7
2016-Aug-24 02:08 013 6 gusting 10 11.1
2016-Aug-24 01:58 013 6 gusting 10 11.7
2016-Aug-24 01:48 022 5 gusting 10 12.2
2016-Aug-24 01:38 031 6 gusting 11 12.2
2016-Aug-24 01:28 048 8 gusting 11 12.2
2016-Aug-24 01:18 041 4 gusting 8 12.2
2016-Aug-24 01:08 030 7 gusting 10 12.2
2016-Aug-24 00:58 024 5 gusting 7 12.2
2016-Aug-24 00:48 031 6 gusting 10 11.7
2016-Aug-24 00:28 038 6 gusting 8 11.7
2016-Aug-24 00:18 031 4 gusting 7 11.7
2016-Aug-23 23:48 041 5 gusting 6 11.7
2016-Aug-23 23:18 275 11.1
2016-Aug-23 22:58 266 11.1
2016-Aug-23 22:38 267 11.1
2016-Aug-23 22:28 264 0 gusting 1 11.1
2016-Aug-23 22:18 270 0 gusting 1 11.1
2016-Aug-23 22:08 261 0 gusting 1 11.1
2016-Aug-23 21:58 268 0 gusting 2 11.1
2016-Aug-23 21:48 264 0 gusting 2 11.1
2016-Aug-23 21:28 270 10.6
2016-Aug-23 21:18 265 10.6
2016-Aug-23 21:08 268 10.0
2016-Aug-23 20:58 266 10.0
2016-Aug-23 20:28 269 9.4
2016-Aug-23 20:18 268 0 gusting 2 9.4
2016-Aug-23 20:08 283 9.4
2016-Aug-23 19:58 282 8.9
2016-Aug-23 19:48 284 8.9
2016-Aug-23 19:38 281 8.3
2016-Aug-23 19:18 288 8.3
2016-Aug-23 19:08 284 8.3
2016-Aug-23 18:58 285 7.8
2016-Aug-23 18:48 284 7.8
2016-Aug-23 18:38 282 7.8
2016-Aug-23 18:28 287 7.8
2016-Aug-23 18:18 286 7.8
2016-Aug-23 18:08 281 8.3
2016-Aug-23 17:58 281 8.3
2016-Aug-23 17:28 281 8.3
2016-Aug-23 17:18 287 7.8
2016-Aug-23 17:08 284 7.8
2016-Aug-23 16:48 322 7.8
2016-Aug-23 16:38 282 8.3
2016-Aug-23 16:28 281 8.3
2016-Aug-23 16:18 283 8.3
2016-Aug-23 16:08 281 8.3
2016-Aug-23 15:58 283 8.3
2016-Aug-23 15:38 285 8.3
2016-Aug-23 15:18 280 8.3
2016-Aug-23 14:58 282 8.9
2016-Aug-23 14:48 281 8.9
2016-Aug-23 14:28 283 9.4
2016-Aug-23 14:18 285 1 gusting 4 9.4
2016-Aug-23 13:48 282 1 gusting 2 9.4
2016-Aug-23 13:28 282 1 gusting 2 9.4
2016-Aug-23 13:18 250 9.4
2016-Aug-23 13:08 245 9.4
2016-Aug-23 12:58 247 9.4
2016-Aug-23 12:48 249 9.4
2016-Aug-23 12:38 251 9.4
2016-Aug-23 12:28 259 9.4
2016-Aug-23 12:18 247 9.4
2016-Aug-23 12:08 245 9.4
2016-Aug-23 11:58 244 9.4
2016-Aug-23 11:48 247 9.4
2016-Aug-23 11:38 303 9.4
2016-Aug-23 11:18 247 10.0
2016-Aug-23 11:08 248 0 gusting 1 10.0
2016-Aug-23 10:58 247 10.0
2016-Aug-23 10:48 244 10.0
2016-Aug-23 10:38 245 10.6
2016-Aug-23 10:28 245 10.6
2016-Aug-23 10:18 240 10.6
2016-Aug-23 10:08 242 10.6
2016-Aug-23 09:58 240 10.6
2016-Aug-23 09:48 241 10.6
2016-Aug-23 09:38 308 10.6
2016-Aug-23 09:18 242 10.6
2016-Aug-23 09:08 241 10.6
2016-Aug-23 08:58 303 10.6
2016-Aug-23 08:48 257 0 gusting 2 10.6
2016-Aug-23 08:38 254 10.6
2016-Aug-23 07:58 247 10.6
2016-Aug-23 07:28 303 11.1
2016-Aug-23 07:18 245 11.1
2016-Aug-23 07:08 239 11.7
2016-Aug-23 06:48 244 0 gusting 5 11.7
2016-Aug-23 06:38 251 0 gusting 4 12.2
2016-Aug-23 06:28 250 0 gusting 5 12.2
2016-Aug-23 06:18 251 1 gusting 5 12.2
2016-Aug-23 06:08 300 2 gusting 5 12.8
2016-Aug-23 05:58 226 4 gusting 6 12.8
2016-Aug-23 05:48 230 2 gusting 7 12.8
2016-Aug-23 05:38 218 4 gusting 6 13.3
2016-Aug-23 05:28 208 4 gusting 6 13.3
2016-Aug-23 05:18 215 2 gusting 6 13.3
2016-Aug-23 05:08 213 3 gusting 6 13.3
2016-Aug-23 04:58 211 4 gusting 6 13.3
2016-Aug-23 04:38 215 5 gusting 8 13.9
2016-Aug-23 04:28 196 7 gusting 12 13.9
2016-Aug-23 04:18 218 3 gusting 7 13.9
2016-Aug-23 04:08 210 5 gusting 11 14.4
2016-Aug-23 03:58 227 5 gusting 11 15.0
2016-Aug-23 03:38 238 5 gusting 11 15.6
2016-Aug-23 03:28 209 7 gusting 13 15.0
2016-Aug-23 02:58 303 5 gusting 10 15.0
2016-Aug-23 02:48 222 4 gusting 12 15.0
2016-Aug-23 02:28 209 7 gusting 12 15.0
2016-Aug-23 02:18 214 6 gusting 13 15.0
2016-Aug-23 02:08 188 6 gusting 15 15.0
2016-Aug-23 01:58 192 8 gusting 13 15.6
2016-Aug-23 01:48 15.6
2016-Aug-23 01:18 184 8 gusting 14 16.1
2016-Aug-23 00:48 186 6 gusting 13 16.7
2016-Aug-23 00:38 219 6 gusting 12 17.8
2016-Aug-23 00:28 211 5 gusting 10 17.8
2016-Aug-23 00:18 230 7 gusting 12 17.2
2016-Aug-23 00:08 174 6 gusting 13 17.8
2016-Aug-22 23:58 228 6 gusting 15 17.8
2016-Aug-22 23:38 211 8 gusting 13 17.2
2016-Aug-22 23:18 271 6 gusting 10 17.2
2016-Aug-22 23:08 185 5 gusting 13 16.7
2016-Aug-22 22:58 223 6 gusting 11 16.7
2016-Aug-22 22:38 189 6 gusting 13 17.2
2016-Aug-22 22:28 207 6 gusting 13 17.2
2016-Aug-22 22:18 224 2 gusting 11 16.7
2016-Aug-22 22:08 198 6 gusting 12 15.0
2016-Aug-22 21:48 200 8 gusting 11 14.4
2016-Aug-22 21:28 230 2 gusting 7 15.6
2016-Aug-22 21:18 208 3 gusting 6 15.6
2016-Aug-22 21:08 265 2 gusting 7 13.9